sensor_id;sensor_type;location;lat;lon;timestamp;pressure;altitude;pressure_sealevel;temperature;humidity
55291;BME280;41155;39.768;2.712;2024-03-08T00:01:09;100426.34;;;15.19;65.53
55291;BME280;41155;39.768;2.712;2024-03-08T00:03:35;100437.47;;;15.22;65.71
55291;BME280;41155;39.768;2.712;2024-03-08T00:06:00;100447.78;;;15.25;65.81
55291;BME280;41155;39.768;2.712;2024-03-08T00:08:26;100449.38;;;15.26;65.89
55291;BME280;41155;39.768;2.712;2024-03-08T00:10:51;100442.44;;;15.15;65.97
55291;BME280;41155;39.768;2.712;2024-03-08T00:13:17;100452.63;;;15.28;65.99
55291;BME280;41155;39.768;2.712;2024-03-08T00:15:42;100482.81;;;15.27;65.94
55291;BME280;41155;39.768;2.712;2024-03-08T00:18:08;100441.53;;;15.25;66.63
55291;BME280;41155;39.768;2.712;2024-03-08T00:20:33;100442.03;;;15.27;66.68
55291;BME280;41155;39.768;2.712;2024-03-08T00:22:59;100450.72;;;15.29;66.82
55291;BME280;41155;39.768;2.712;2024-03-08T00:25:24;100421.38;;;15.26;66.88
55291;BME280;41155;39.768;2.712;2024-03-08T00:27:50;100427.84;;;15.30;67.01
55291;BME280;41155;39.768;2.712;2024-03-08T00:30:15;100438.16;;;15.33;66.94
55291;BME280;41155;39.768;2.712;2024-03-08T00:32:41;100431.09;;;15.32;67.31
55291;BME280;41155;39.768;2.712;2024-03-08T00:35:07;100415.47;;;15.19;67.32
55291;BME280;41155;39.768;2.712;2024-03-08T00:37:32;100451.25;;;15.31;67.10
55291;BME280;41155;39.768;2.712;2024-03-08T00:39:59;100459.63;;;15.34;67.61
55291;BME280;41155;39.768;2.712;2024-03-08T00:42:25;100472.94;;;15.36;67.57
55291;BME280;41155;39.768;2.712;2024-03-08T00:44:50;100484.91;;;15.35;67.71
55291;BME280;41155;39.768;2.712;2024-03-08T00:47:16;100468.03;;;15.38;68.01
55291;BME280;41155;39.768;2.712;2024-03-08T00:49:42;100468.81;;;15.38;67.86
55291;BME280;41155;39.768;2.712;2024-03-08T00:52:07;100449.09;;;15.28;67.82
55291;BME280;41155;39.768;2.712;2024-03-08T00:54:36;100454.59;;;15.47;68.45
55291;BME280;41155;39.768;2.712;2024-03-08T00:57:05;100465.25;;;15.43;68.61
55291;BME280;41155;39.768;2.712;2024-03-08T00:59:32;100442.94;;;15.41;69.05
55291;BME280;41155;39.768;2.712;2024-03-08T01:02:00;100439.78;;;15.34;69.24
55291;BME280;41155;39.768;2.712;2024-03-08T01:04:26;100425.06;;;15.35;69.30
55291;BME280;41155;39.768;2.712;2024-03-08T01:06:55;100388.09;;;15.34;69.26
55291;BME280;41155;39.768;2.712;2024-03-08T01:09:22;100409.28;;;15.37;69.08
55291;BME280;41155;39.768;2.712;2024-03-08T01:11:48;100404.28;;;15.44;68.98
55291;BME280;41155;39.768;2.712;2024-03-08T01:14:13;100399.94;;;15.43;68.75
55291;BME280;41155;39.768;2.712;2024-03-08T01:16:39;100402.38;;;15.45;68.83
55291;BME280;41155;39.768;2.712;2024-03-08T01:19:04;100392.31;;;15.45;68.94
55291;BME280;41155;39.768;2.712;2024-03-08T01:21:30;100324.00;;;15.47;69.05
55291;BME280;41155;39.768;2.712;2024-03-08T01:23:56;100323.19;;;15.46;68.74
55291;BME280;41155;39.768;2.712;2024-03-08T01:26:21;100340.03;;;15.48;68.89
55291;BME280;41155;39.768;2.712;2024-03-08T01:28:47;100327.03;;;15.45;69.31
55291;BME280;41155;39.768;2.712;2024-03-08T01:31:12;100316.94;;;15.46;69.27
55291;BME280;41155;39.768;2.712;2024-03-08T01:33:39;100327.81;;;15.46;69.80
55291;BME280;41155;39.768;2.712;2024-03-08T01:36:05;100336.00;;;15.46;69.63
55291;BME280;41155;39.768;2.712;2024-03-08T01:38:31;100345.53;;;15.43;69.52
55291;BME280;41155;39.768;2.712;2024-03-08T01:40:56;100332.97;;;15.47;69.60
55291;BME280;41155;39.768;2.712;2024-03-08T01:43:25;100331.34;;;15.46;70.10
55291;BME280;41155;39.768;2.712;2024-03-08T01:45:52;100313.41;;;15.45;70.32
55291;BME280;41155;39.768;2.712;2024-03-08T01:48:18;100309.66;;;15.41;70.64
55291;BME280;41155;39.768;2.712;2024-03-08T01:50:47;100316.72;;;15.42;70.53
55291;BME280;41155;39.768;2.712;2024-03-08T01:53:13;100294.66;;;15.44;70.64
55291;BME280;41155;39.768;2.712;2024-03-08T01:55:40;100283.56;;;15.40;71.06
55291;BME280;41155;39.768;2.712;2024-03-08T01:58:09;100279.22;;;15.39;70.86
55291;BME280;41155;39.768;2.712;2024-03-08T02:00:36;100254.66;;;15.25;70.84
55291;BME280;41155;39.768;2.712;2024-03-08T02:03:03;100290.13;;;15.39;70.45
55291;BME280;41155;39.768;2.712;2024-03-08T02:05:29;100292.75;;;15.44;70.53
55291;BME280;41155;39.768;2.712;2024-03-08T02:07:55;100279.13;;;15.44;70.23
55291;BME280;41155;39.768;2.712;2024-03-08T02:10:22;100281.84;;;15.44;70.33
55291;BME280;41155;39.768;2.712;2024-03-08T02:12:48;100286.81;;;15.42;71.45
55291;BME280;41155;39.768;2.712;2024-03-08T02:15:13;100274.88;;;15.38;71.53
55291;BME280;41155;39.768;2.712;2024-03-08T02:17:40;100273.06;;;15.33;71.47
55291;BME280;41155;39.768;2.712;2024-03-08T02:20:06;100275.19;;;15.36;71.06
55291;BME280;41155;39.768;2.712;2024-03-08T02:22:34;100293.84;;;15.43;70.90
55291;BME280;41155;39.768;2.712;2024-03-08T02:25:00;100292.16;;;15.47;70.91
55291;BME280;41155;39.768;2.712;2024-03-08T02:27:28;100283.56;;;15.40;71.26
55291;BME280;41155;39.768;2.712;2024-03-08T02:29:56;100276.13;;;15.46;71.49
55291;BME280;41155;39.768;2.712;2024-03-08T02:32:24;100256.34;;;15.40;71.88
55291;BME280;41155;39.768;2.712;2024-03-08T02:34:50;100276.19;;;15.41;72.25
55291;BME280;41155;39.768;2.712;2024-03-08T02:37:17;100275.09;;;15.42;71.83
55291;BME280;41155;39.768;2.712;2024-03-08T02:39:43;100271.06;;;15.39;71.31
55291;BME280;41155;39.768;2.712;2024-03-08T02:42:08;100253.91;;;15.38;70.77
55291;BME280;41155;39.768;2.712;2024-03-08T02:44:34;100247.81;;;15.47;70.54
55291;BME280;41155;39.768;2.712;2024-03-08T02:47:00;100252.53;;;15.41;69.39
55291;BME280;41155;39.768;2.712;2024-03-08T02:49:26;100241.28;;;15.48;69.04
55291;BME280;41155;39.768;2.712;2024-03-08T02:51:54;100241.50;;;15.51;69.02
55291;BME280;41155;39.768;2.712;2024-03-08T02:54:22;100243.91;;;15.53;68.68
55291;BME280;41155;39.768;2.712;2024-03-08T02:56:49;100235.00;;;15.47;68.58
55291;BME280;41155;39.768;2.712;2024-03-08T02:59:16;100211.78;;;15.55;68.72
55291;BME280;41155;39.768;2.712;2024-03-08T03:01:42;100214.22;;;15.56;69.43
55291;BME280;41155;39.768;2.712;2024-03-08T03:04:08;100229.81;;;15.51;69.74
55291;BME280;41155;39.768;2.712;2024-03-08T03:06:34;100227.09;;;15.51;69.44
55291;BME280;41155;39.768;2.712;2024-03-08T03:08:59;100211.25;;;15.53;68.69
55291;BME280;41155;39.768;2.712;2024-03-08T03:11:24;100189.72;;;15.56;67.60
55291;BME280;41155;39.768;2.712;2024-03-08T03:13:50;100182.56;;;15.60;68.25
55291;BME280;41155;39.768;2.712;2024-03-08T03:16:19;100185.28;;;15.60;68.84
55291;BME280;41155;39.768;2.712;2024-03-08T03:18:45;100158.88;;;15.61;68.77
55291;BME280;41155;39.768;2.712;2024-03-08T03:21:11;100176.00;;;15.62;68.44
55291;BME280;41155;39.768;2.712;2024-03-08T03:23:39;100175.13;;;15.66;66.65
55291;BME280;41155;39.768;2.712;2024-03-08T03:26:05;100204.72;;;15.73;66.92
55291;BME280;41155;39.768;2.712;2024-03-08T03:28:36;100212.28;;;15.76;67.17
55291;BME280;41155;39.768;2.712;2024-03-08T03:31:06;100196.97;;;15.80;67.42
55291;BME280;41155;39.768;2.712;2024-03-08T03:33:32;100230.13;;;15.82;67.76
55291;BME280;41155;39.768;2.712;2024-03-08T03:35:59;100204.03;;;15.81;69.37
55291;BME280;41155;39.768;2.712;2024-03-08T03:38:26;100229.56;;;15.66;71.43
55291;BME280;41155;39.768;2.712;2024-03-08T03:40:53;100221.69;;;15.65;71.71
55291;BME280;41155;39.768;2.712;2024-03-08T03:43:22;100217.94;;;15.60;71.25
55291;BME280;41155;39.768;2.712;2024-03-08T03:45:48;100215.94;;;15.66;70.59
55291;BME280;41155;39.768;2.712;2024-03-08T03:48:13;100253.53;;;15.64;70.23
55291;BME280;41155;39.768;2.712;2024-03-08T03:50:39;100246.44;;;15.68;70.46
55291;BME280;41155;39.768;2.712;2024-03-08T03:53:05;100239.72;;;15.60;72.24
55291;BME280;41155;39.768;2.712;2024-03-08T03:55:33;100249.34;;;15.53;74.52
55291;BME280;41155;39.768;2.712;2024-03-08T03:57:58;100223.94;;;15.25;75.47
55291;BME280;41155;39.768;2.712;2024-03-08T04:00:26;100244.22;;;15.32;76.41
55291;BME280;41155;39.768;2.712;2024-03-08T04:02:53;100273.91;;;15.29;76.77
55291;BME280;41155;39.768;2.712;2024-03-08T04:05:18;100258.19;;;15.26;75.87
55291;BME280;41155;39.768;2.712;2024-03-08T04:07:44;100263.84;;;15.29;76.01
55291;BME280;41155;39.768;2.712;2024-03-08T04:10:11;100279.56;;;15.32;75.62
55291;BME280;41155;39.768;2.712;2024-03-08T04:12:37;100262.75;;;15.30;76.21
55291;BME280;41155;39.768;2.712;2024-03-08T04:15:03;100258.41;;;15.29;76.04
55291;BME280;41155;39.768;2.712;2024-03-08T04:17:30;100297.28;;;15.30;77.29
55291;BME280;41155;39.768;2.712;2024-03-08T04:19:55;100270.75;;;15.22;78.19
55291;BME280;41155;39.768;2.712;2024-03-08T04:22:22;100281.69;;;15.17;78.70
55291;BME280;41155;39.768;2.712;2024-03-08T04:24:48;100295.78;;;15.19;79.17
55291;BME280;41155;39.768;2.712;2024-03-08T04:27:14;100288.75;;;15.18;80.83
55291;BME280;41155;39.768;2.712;2024-03-08T04:29:39;100283.69;;;15.11;83.10
55291;BME280;41155;39.768;2.712;2024-03-08T04:32:06;100293.59;;;15.02;83.45
55291;BME280;41155;39.768;2.712;2024-03-08T04:34:32;100311.13;;;14.90;84.40
55291;BME280;41155;39.768;2.712;2024-03-08T04:36:59;100311.81;;;14.77;85.27
55291;BME280;41155;39.768;2.712;2024-03-08T04:39:28;100330.41;;;14.65;89.89
55291;BME280;41155;39.768;2.712;2024-03-08T04:41:55;100306.75;;;14.36;92.58
55291;BME280;41155;39.768;2.712;2024-03-08T04:44:23;100311.94;;;14.04;95.12
55291;BME280;41155;39.768;2.712;2024-03-08T04:46:50;100314.53;;;13.79;96.18
55291;BME280;41155;39.768;2.712;2024-03-08T04:49:15;100325.47;;;13.74;97.02
55291;BME280;41155;39.768;2.712;2024-03-08T04:51:41;100325.75;;;13.68;96.80
55291;BME280;41155;39.768;2.712;2024-03-08T04:54:06;100324.72;;;13.59;96.40
55291;BME280;41155;39.768;2.712;2024-03-08T04:56:32;100325.03;;;13.57;96.35
55291;BME280;41155;39.768;2.712;2024-03-08T04:58:58;100317.50;;;13.44;93.68
55291;BME280;41155;39.768;2.712;2024-03-08T05:01:24;100311.53;;;13.42;93.97
55291;BME280;41155;39.768;2.712;2024-03-08T05:03:50;100313.69;;;13.45;95.12
55291;BME280;41155;39.768;2.712;2024-03-08T05:06:16;100305.84;;;13.38;91.62
55291;BME280;41155;39.768;2.712;2024-03-08T05:08:42;100300.72;;;13.37;92.42
55291;BME280;41155;39.768;2.712;2024-03-08T05:11:07;100295.25;;;13.42;91.26
55291;BME280;41155;39.768;2.712;2024-03-08T05:13:33;100267.91;;;13.33;90.90
55291;BME280;41155;39.768;2.712;2024-03-08T05:15:59;100257.81;;;13.44;90.54
55291;BME280;41155;39.768;2.712;2024-03-08T05:18:25;100205.50;;;13.43;92.15
55291;BME280;41155;39.768;2.712;2024-03-08T05:20:53;100206.88;;;13.41;92.86
55291;BME280;41155;39.768;2.712;2024-03-08T05:23:18;100218.47;;;13.51;93.52
55291;BME280;41155;39.768;2.712;2024-03-08T05:25:45;100206.53;;;13.47;94.15
55291;BME280;41155;39.768;2.712;2024-03-08T05:28:12;100229.03;;;13.48;92.92
55291;BME280;41155;39.768;2.712;2024-03-08T05:30:38;100260.50;;;13.49;93.11
55291;BME280;41155;39.768;2.712;2024-03-08T05:33:04;100245.38;;;13.43;90.38
55291;BME280;41155;39.768;2.712;2024-03-08T05:35:31;100256.72;;;13.45;88.27
55291;BME280;41155;39.768;2.712;2024-03-08T05:37:57;100266.75;;;13.44;88.42
55291;BME280;41155;39.768;2.712;2024-03-08T05:40:23;100269.25;;;13.41;87.72
55291;BME280;41155;39.768;2.712;2024-03-08T05:42:49;100255.44;;;13.37;86.09
55291;BME280;41155;39.768;2.712;2024-03-08T05:45:14;100247.53;;;13.41;86.23
55291;BME280;41155;39.768;2.712;2024-03-08T05:47:40;100245.94;;;13.40;86.67
55291;BME280;41155;39.768;2.712;2024-03-08T05:50:06;100262.94;;;13.50;82.10
55291;BME280;41155;39.768;2.712;2024-03-08T05:52:35;100259.44;;;13.45;82.95
55291;BME280;41155;39.768;2.712;2024-03-08T05:55:01;100283.28;;;13.48;82.36
55291;BME280;41155;39.768;2.712;2024-03-08T05:57:28;100292.47;;;13.57;82.77
55291;BME280;41155;39.768;2.712;2024-03-08T05:59:53;100288.66;;;13.58;82.57
55291;BME280;41155;39.768;2.712;2024-03-08T06:02:19;100292.19;;;13.53;83.37
55291;BME280;41155;39.768;2.712;2024-03-08T06:04:47;100289.50;;;13.53;83.23
55291;BME280;41155;39.768;2.712;2024-03-08T06:07:13;100308.66;;;13.67;81.83
55291;BME280;41155;39.768;2.712;2024-03-08T06:09:38;100297.81;;;13.67;82.84
55291;BME280;41155;39.768;2.712;2024-03-08T06:12:04;100293.16;;;13.73;83.54
55291;BME280;41155;39.768;2.712;2024-03-08T06:14:31;100292.34;;;13.77;84.52
55291;BME280;41155;39.768;2.712;2024-03-08T06:16:57;100298.53;;;13.83;85.35
55291;BME280;41155;39.768;2.712;2024-03-08T06:19:23;100314.03;;;13.77;85.85
55291;BME280;41155;39.768;2.712;2024-03-08T06:21:48;100307.03;;;13.71;86.75
55291;BME280;41155;39.768;2.712;2024-03-08T06:24:14;100311.91;;;13.69;88.43
55291;BME280;41155;39.768;2.712;2024-03-08T06:26:40;100313.31;;;13.62;88.51
55291;BME280;41155;39.768;2.712;2024-03-08T06:29:06;100316.03;;;13.56;89.16
55291;BME280;41155;39.768;2.712;2024-03-08T06:31:34;100326.66;;;13.53;88.49
55291;BME280;41155;39.768;2.712;2024-03-08T06:34:04;100306.31;;;13.55;87.11
55291;BME280;41155;39.768;2.712;2024-03-08T06:36:33;100308.22;;;13.50;88.78
55291;BME280;41155;39.768;2.712;2024-03-08T06:38:59;100316.38;;;13.45;90.74
55291;BME280;41155;39.768;2.712;2024-03-08T06:41:24;100313.13;;;13.48;91.99
55291;BME280;41155;39.768;2.712;2024-03-08T06:43:50;100314.19;;;13.52;92.43
55291;BME280;41155;39.768;2.712;2024-03-08T06:46:17;100312.63;;;13.41;92.81
55291;BME280;41155;39.768;2.712;2024-03-08T06:48:43;100309.66;;;13.37;93.33
55291;BME280;41155;39.768;2.712;2024-03-08T06:51:11;100307.22;;;13.36;94.06
55291;BME280;41155;39.768;2.712;2024-03-08T06:53:36;100319.38;;;13.48;94.57
55291;BME280;41155;39.768;2.712;2024-03-08T06:56:02;100313.38;;;13.51;94.84
55291;BME280;41155;39.768;2.712;2024-03-08T06:58:28;100315.56;;;13.49;94.91
55291;BME280;41155;39.768;2.712;2024-03-08T07:00:54;100308.00;;;13.46;94.95
55291;BME280;41155;39.768;2.712;2024-03-08T07:03:23;100300.63;;;13.52;95.33
55291;BME280;41155;39.768;2.712;2024-03-08T07:05:49;100294.31;;;13.62;94.95
55291;BME280;41155;39.768;2.712;2024-03-08T07:08:14;100282.78;;;13.41;94.76
55291;BME280;41155;39.768;2.712;2024-03-08T07:10:40;100322.66;;;13.45;94.77
55291;BME280;41155;39.768;2.712;2024-03-08T07:13:10;100341.31;;;13.52;95.20
55291;BME280;41155;39.768;2.712;2024-03-08T07:15:36;100350.47;;;13.61;95.39
55291;BME280;41155;39.768;2.712;2024-03-08T07:18:02;100352.72;;;13.54;95.18
55291;BME280;41155;39.768;2.712;2024-03-08T07:20:27;100345.97;;;13.41;95.22
55291;BME280;41155;39.768;2.712;2024-03-08T07:22:54;100359.00;;;13.39;95.68
55291;BME280;41155;39.768;2.712;2024-03-08T07:25:19;100353.31;;;13.36;95.89
55291;BME280;41155;39.768;2.712;2024-03-08T07:27:50;100370.63;;;13.45;94.99
55291;BME280;41155;39.768;2.712;2024-03-08T07:30:16;100366.03;;;13.45;95.41
55291;BME280;41155;39.768;2.712;2024-03-08T07:33:01;100383.84;;;13.62;95.76
55291;BME280;41155;39.768;2.712;2024-03-08T07:35:29;100383.16;;;13.30;86.42
55291;BME280;41155;39.768;2.712;2024-03-08T07:37:56;100376.72;;;13.11;75.69
55291;BME280;41155;39.768;2.712;2024-03-08T07:40:22;100393.28;;;12.89;74.61
55291;BME280;41155;39.768;2.712;2024-03-08T07:42:49;100408.22;;;12.61;73.26
55291;BME280;41155;39.768;2.712;2024-03-08T07:45:15;100436.38;;;12.29;69.26
55291;BME280;41155;39.768;2.712;2024-03-08T07:47:41;100408.75;;;12.17;73.11
55291;BME280;41155;39.768;2.712;2024-03-08T07:50:07;100412.75;;;11.84;74.72
55291;BME280;41155;39.768;2.712;2024-03-08T07:52:36;100392.94;;;11.58;75.61
55291;BME280;41155;39.768;2.712;2024-03-08T07:55:02;100421.53;;;11.43;73.92
55291;BME280;41155;39.768;2.712;2024-03-08T07:57:29;100404.25;;;11.49;74.14
55291;BME280;41155;39.768;2.712;2024-03-08T07:59:55;100391.81;;;11.53;74.55
55291;BME280;41155;39.768;2.712;2024-03-08T08:02:20;100405.91;;;11.61;76.36
55291;BME280;41155;39.768;2.712;2024-03-08T08:04:46;100402.09;;;11.51;73.91
55291;BME280;41155;39.768;2.712;2024-03-08T08:07:11;100389.91;;;11.49;71.59
55291;BME280;41155;39.768;2.712;2024-03-08T08:09:37;100392.41;;;11.61;70.87
55291;BME280;41155;39.768;2.712;2024-03-08T08:12:03;100400.81;;;11.74;70.33
55291;BME280;41155;39.768;2.712;2024-03-08T08:14:32;100399.19;;;11.79;71.93
55291;BME280;41155;39.768;2.712;2024-03-08T08:16:57;100420.38;;;11.97;67.39
55291;BME280;41155;39.768;2.712;2024-03-08T08:19:25;100414.75;;;12.24;66.73
55291;BME280;41155;39.768;2.712;2024-03-08T08:21:52;100415.53;;;12.35;67.93
55291;BME280;41155;39.768;2.712;2024-03-08T08:24:18;100401.75;;;12.36;69.12
55291;BME280;41155;39.768;2.712;2024-03-08T08:26:45;100402.84;;;12.30;73.38
55291;BME280;41155;39.768;2.712;2024-03-08T08:29:11;100417.69;;;12.02;77.02
55291;BME280;41155;39.768;2.712;2024-03-08T08:31:36;100419.84;;;12.10;77.06
55291;BME280;41155;39.768;2.712;2024-03-08T08:34:02;100418.50;;;12.23;75.56
55291;BME280;41155;39.768;2.712;2024-03-08T08:36:28;100418.28;;;12.30;65.88
55291;BME280;41155;39.768;2.712;2024-03-08T08:38:55;100406.09;;;12.53;64.84
55291;BME280;41155;39.768;2.712;2024-03-08T08:41:23;100415.00;;;12.69;67.54
55291;BME280;41155;39.768;2.712;2024-03-08T08:43:48;100412.28;;;12.69;62.63
55291;BME280;41155;39.768;2.712;2024-03-08T08:46:17;100415.00;;;12.74;61.75
55291;BME280;41155;39.768;2.712;2024-03-08T08:48:43;100413.91;;;12.85;60.38
55291;BME280;41155;39.768;2.712;2024-03-08T08:51:11;100416.59;;;12.90;59.17
55291;BME280;41155;39.768;2.712;2024-03-08T08:53:42;100416.28;;;13.07;61.23
55291;BME280;41155;39.768;2.712;2024-03-08T08:56:11;100413.28;;;13.19;62.76
55291;BME280;41155;39.768;2.712;2024-03-08T08:58:44;100415.66;;;13.46;64.21
55291;BME280;41155;39.768;2.712;2024-03-08T09:01:09;100408.69;;;13.84;61.43
55291;BME280;41155;39.768;2.712;2024-03-08T09:03:36;100426.84;;;14.33;56.70
55291;BME280;41155;39.768;2.712;2024-03-08T09:06:03;100423.41;;;15.39;55.40
55291;BME280;41155;39.768;2.712;2024-03-08T09:08:29;100449.19;;;15.71;52.07
55291;BME280;41155;39.768;2.712;2024-03-08T09:10:55;100426.91;;;15.64;49.35
55291;BME280;41155;39.768;2.712;2024-03-08T09:13:20;100428.88;;;16.20;48.36
55291;BME280;41155;39.768;2.712;2024-03-08T09:15:46;100427.75;;;17.19;47.80
55291;BME280;41155;39.768;2.712;2024-03-08T09:18:11;100428.25;;;17.62;44.93
55291;BME280;41155;39.768;2.712;2024-03-08T09:20:37;100422.47;;;17.92;45.45
55291;BME280;41155;39.768;2.712;2024-03-08T09:23:03;100426.94;;;17.46;49.67
55291;BME280;41155;39.768;2.712;2024-03-08T09:25:29;100410.00;;;17.22;52.61
55291;BME280;41155;39.768;2.712;2024-03-08T09:27:55;100407.84;;;16.72;50.80
55291;BME280;41155;39.768;2.712;2024-03-08T09:30:20;100415.63;;;16.65;51.23
55291;BME280;41155;39.768;2.712;2024-03-08T09:32:47;100422.91;;;16.69;53.43
55291;BME280;41155;39.768;2.712;2024-03-08T09:35:12;100419.41;;;16.83;54.07
55291;BME280;41155;39.768;2.712;2024-03-08T09:37:38;100430.88;;;17.12;53.49
55291;BME280;41155;39.768;2.712;2024-03-08T09:40:04;100428.38;;;17.16;49.52
55291;BME280;41155;39.768;2.712;2024-03-08T09:42:35;100419.53;;;16.91;47.29
55291;BME280;41155;39.768;2.712;2024-03-08T09:45:08;100414.16;;;16.86;46.02
55291;BME280;41155;39.768;2.712;2024-03-08T09:47:37;100420.22;;;16.83;46.29
55291;BME280;41155;39.768;2.712;2024-03-08T09:50:08;100426.38;;;16.75;45.93
55291;BME280;41155;39.768;2.712;2024-03-08T09:52:46;100422.06;;;16.88;47.60
55291;BME280;41155;39.768;2.712;2024-03-08T09:55:12;100433.28;;;17.00;47.72
55291;BME280;41155;39.768;2.712;2024-03-08T09:57:39;100443.09;;;17.15;47.99
55291;BME280;41155;39.768;2.712;2024-03-08T10:00:05;100435.13;;;17.05;44.92
55291;BME280;41155;39.768;2.712;2024-03-08T10:02:46;100435.25;;;17.27;45.08
55291;BME280;41155;39.768;2.712;2024-03-08T10:05:12;100440.25;;;17.06;43.91
55291;BME280;41155;39.768;2.712;2024-03-08T10:07:39;100418.34;;;16.98;42.84
55291;BME280;41155;39.768;2.712;2024-03-08T10:10:05;100426.34;;;17.22;44.47
55291;BME280;41155;39.768;2.712;2024-03-08T10:12:30;100430.38;;;17.38;44.71
55291;BME280;41155;39.768;2.712;2024-03-08T10:14:58;100443.13;;;17.29;41.98
55291;BME280;41155;39.768;2.712;2024-03-08T10:17:24;100448.66;;;17.24;42.83
55291;BME280;41155;39.768;2.712;2024-03-08T10:19:51;100436.34;;;16.99;41.18
55291;BME280;41155;39.768;2.712;2024-03-08T10:22:19;100479.41;;;16.83;41.04
55291;BME280;41155;39.768;2.712;2024-03-08T10:24:48;100460.09;;;16.46;40.40
55291;BME280;41155;39.768;2.712;2024-03-08T10:27:16;100426.47;;;16.51;40.04
55291;BME280;41155;39.768;2.712;2024-03-08T10:29:42;100421.28;;;16.68;40.65
55291;BME280;41155;39.768;2.712;2024-03-08T10:32:09;100438.91;;;16.76;39.79
55291;BME280;41155;39.768;2.712;2024-03-08T10:34:35;100428.16;;;16.99;40.33
55291;BME280;41155;39.768;2.712;2024-03-08T10:37:03;100436.44;;;17.07;39.46
55291;BME280;41155;39.768;2.712;2024-03-08T10:39:34;100438.69;;;17.19;40.99
55291;BME280;41155;39.768;2.712;2024-03-08T10:42:03;100462.53;;;17.27;38.83
55291;BME280;41155;39.768;2.712;2024-03-08T10:47:15;100425.53;;;17.21;38.18
55291;BME280;41155;39.768;2.712;2024-03-08T10:50:04;100423.53;;;17.13;35.57
55291;BME280;41155;39.768;2.712;2024-03-08T10:52:34;100453.84;;;17.25;37.07
55291;BME280;41155;39.768;2.712;2024-03-08T10:55:01;100422.78;;;17.21;37.28
55291;BME280;41155;39.768;2.712;2024-03-08T10:57:27;100423.63;;;17.22;35.48
55291;BME280;41155;39.768;2.712;2024-03-08T10:59:53;100432.13;;;17.34;36.90
55291;BME280;41155;39.768;2.712;2024-03-08T11:02:19;100400.69;;;17.50;36.37
55291;BME280;41155;39.768;2.712;2024-03-08T11:04:49;100416.00;;;17.74;34.77
55291;BME280;41155;39.768;2.712;2024-03-08T11:07:15;100404.06;;;17.70;34.65
55291;BME280;41155;39.768;2.712;2024-03-08T11:09:47;100426.50;;;17.94;36.88
55291;BME280;41155;39.768;2.712;2024-03-08T11:12:26;100401.41;;;17.92;35.84
55291;BME280;41155;39.768;2.712;2024-03-08T11:15:15;100398.88;;;17.96;35.59
55291;BME280;41155;39.768;2.712;2024-03-08T11:17:52;100402.00;;;18.03;36.69
55291;BME280;41155;39.768;2.712;2024-03-08T11:20:23;100410.00;;;17.99;36.71
55291;BME280;41155;39.768;2.712;2024-03-08T11:22:54;100398.22;;;17.76;37.23
55291;BME280;41155;39.768;2.712;2024-03-08T11:25:34;100419.22;;;17.76;39.41
55291;BME280;41155;39.768;2.712;2024-03-08T11:30:36;100421.28;;;17.56;39.32
55291;BME280;41155;39.768;2.712;2024-03-08T11:33:03;100426.16;;;17.46;39.58
55291;BME280;41155;39.768;2.712;2024-03-08T11:35:29;100408.03;;;17.50;38.29
55291;BME280;41155;39.768;2.712;2024-03-08T11:37:58;100432.41;;;17.46;38.09
55291;BME280;41155;39.768;2.712;2024-03-08T11:40:26;100450.00;;;17.54;38.66
55291;BME280;41155;39.768;2.712;2024-03-08T11:42:51;100442.28;;;17.56;39.10
55291;BME280;41155;39.768;2.712;2024-03-08T11:45:18;100444.53;;;17.68;39.39
55291;BME280;41155;39.768;2.712;2024-03-08T11:47:46;100431.78;;;17.63;38.40
55291;BME280;41155;39.768;2.712;2024-03-08T11:50:13;100443.75;;;17.39;39.48
55291;BME280;41155;39.768;2.712;2024-03-08T11:52:39;100442.81;;;17.58;40.11
55291;BME280;41155;39.768;2.712;2024-03-08T11:55:05;100461.13;;;17.16;37.50
55291;BME280;41155;39.768;2.712;2024-03-08T11:57:31;100428.16;;;17.26;37.89
55291;BME280;41155;39.768;2.712;2024-03-08T11:59:57;100448.16;;;17.35;37.86
55291;BME280;41155;39.768;2.712;2024-03-08T12:02:24;100430.19;;;17.34;37.54
55291;BME280;41155;39.768;2.712;2024-03-08T12:04:56;100438.88;;;17.36;36.47
55291;BME280;41155;39.768;2.712;2024-03-08T12:07:23;100426.47;;;17.30;35.98
55291;BME280;41155;39.768;2.712;2024-03-08T12:10:18;100433.00;;;17.43;36.61
55291;BME280;41155;39.768;2.712;2024-03-08T12:12:46;100486.59;;;17.39;36.14
55291;BME280;41155;39.768;2.712;2024-03-08T12:15:13;100465.16;;;17.19;36.32
55291;BME280;41155;39.768;2.712;2024-03-08T12:17:40;100419.66;;;17.14;36.60
55291;BME280;41155;39.768;2.712;2024-03-08T12:20:15;100424.31;;;17.13;36.06
55291;BME280;41155;39.768;2.712;2024-03-08T12:22:44;100415.31;;;17.40;36.68
55291;BME280;41155;39.768;2.712;2024-03-08T12:25:13;100412.06;;;17.52;35.80
55291;BME280;41155;39.768;2.712;2024-03-08T12:27:43;100417.44;;;17.57;35.77
55291;BME280;41155;39.768;2.712;2024-03-08T12:30:35;100399.03;;;17.63;36.43
55291;BME280;41155;39.768;2.712;2024-03-08T12:33:00;100394.66;;;17.76;35.09
55291;BME280;41155;39.768;2.712;2024-03-08T12:35:27;100394.34;;;17.91;36.88
55291;BME280;41155;39.768;2.712;2024-03-08T12:37:56;100399.19;;;17.94;35.40
55291;BME280;41155;39.768;2.712;2024-03-08T12:40:31;100385.97;;;18.10;35.47
55291;BME280;41155;39.768;2.712;2024-03-08T12:42:58;100374.19;;;18.23;36.53
55291;BME280;41155;39.768;2.712;2024-03-08T12:45:24;100377.34;;;18.39;35.20
55291;BME280;41155;39.768;2.712;2024-03-08T12:47:51;100370.22;;;18.29;33.76
55291;BME280;41155;39.768;2.712;2024-03-08T12:50:17;100372.31;;;18.33;35.26
55291;BME280;41155;39.768;2.712;2024-03-08T12:52:42;100367.22;;;18.40;36.01
55291;BME280;41155;39.768;2.712;2024-03-08T12:55:08;100348.34;;;18.29;35.41